sensor_id;sensor_type;location;lat;lon;timestamp;pressure;altitude;pressure_sealevel;temperature;humidity
45872;BME280;32333;55.844;-3.210;2022-12-29T00:01:47;95715.30;;;2.82;100.00
45872;BME280;32333;55.844;-3.210;2022-12-29T00:04:15;95716.23;;;2.74;100.00
45872;BME280;32333;55.844;-3.210;2022-12-29T00:06:43;95716.48;;;1.97;100.00
45872;BME280;32333;55.844;-3.210;2022-12-29T00:09:11;95715.20;;;2.85;100.00
45872;BME280;32333;55.844;-3.210;2022-12-29T00:11:40;95727.69;;;3.13;100.00
45872;BME280;32333;55.844;-3.210;2022-12-29T00:14:34;95730.27;;;2.69;100.00
45872;BME280;32333;55.844;-3.210;2022-12-29T00:17:01;95743.21;;;2.33;100.00
45872;BME280;32333;55.844;-3.210;2022-12-29T00:19:29;95758.12;;;2.73;100.00
45872;BME280;32333;55.844;-3.210;2022-12-29T00:21:58;95766.27;;;2.74;100.00
45872;BME280;32333;55.844;-3.210;2022-12-29T00:24:25;95750.85;;;1.86;100.00
45872;BME280;32333;55.844;-3.210;2022-12-29T00:26:56;95753.46;;;2.41;100.00
45872;BME280;32333;55.844;-3.210;2022-12-29T00:29:25;95749.69;;;2.51;100.00
45872;BME280;32333;55.844;-3.210;2022-12-29T00:31:52;95746.61;;;2.16;100.00
45872;BME280;32333;55.844;-3.210;2022-12-29T00:34:20;95758.82;;;1.86;100.00
45872;BME280;32333;55.844;-3.210;2022-12-29T00:36:47;95760.55;;;2.06;100.00
45872;BME280;32333;55.844;-3.210;2022-12-29T00:39:16;95770.04;;;2.21;100.00
45872;BME280;32333;55.844;-3.210;2022-12-29T00:41:46;95766.65;;;2.34;100.00
45872;BME280;32333;55.844;-3.210;2022-12-29T00:44:34;95774.52;;;2.07;100.00
45872;BME280;32333;55.844;-3.210;2022-12-29T00:47:02;95778.58;;;2.07;100.00
45872;BME280;32333;55.844;-3.210;2022-12-29T00:49:29;95777.15;;;1.99;100.00
45872;BME280;32333;55.844;-3.210;2022-12-29T00:51:59;95792.37;;;1.52;100.00
45872;BME280;32333;55.844;-3.210;2022-12-29T00:54:29;95798.83;;;1.92;100.00
45872;BME280;32333;55.844;-3.210;2022-12-29T00:56:57;95797.94;;;1.56;100.00
45872;BME280;32333;55.844;-3.210;2022-12-29T00:59:26;95802.69;;;2.16;100.00
45872;BME280;32333;55.844;-3.210;2022-12-29T01:01:53;95808.84;;;1.55;100.00
45872;BME280;32333;55.844;-3.210;2022-12-29T01:04:22;95803.78;;;1.55;100.00
45872;BME280;32333;55.844;-3.210;2022-12-29T01:06:50;95792.38;;;1.80;100.00
45872;BME280;32333;55.844;-3.210;2022-12-29T01:09:18;95798.17;;;1.95;100.00
45872;BME280;32333;55.844;-3.210;2022-12-29T01:11:46;95823.04;;;1.88;100.00
45872;BME280;32333;55.844;-3.210;2022-12-29T01:14:34;95815.52;;;1.84;100.00
45872;BME280;32333;55.844;-3.210;2022-12-29T01:17:03;95821.77;;;2.13;100.00
45872;BME280;32333;55.844;-3.210;2022-12-29T01:19:30;95804.30;;;0.88;100.00
45872;BME280;32333;55.844;-3.210;2022-12-29T01:21:57;95811.54;;;2.55;100.00
45872;BME280;32333;55.844;-3.210;2022-12-29T01:24:25;95828.59;;;2.65;100.00
45872;BME280;32333;55.844;-3.210;2022-12-29T01:26:52;95827.40;;;2.09;100.00
45872;BME280;32333;55.844;-3.210;2022-12-29T01:29:19;95811.09;;;2.00;100.00
45872;BME280;32333;55.844;-3.210;2022-12-29T01:31:46;95827.05;;;2.17;100.00
45872;BME280;32333;55.844;-3.210;2022-12-29T01:34:14;95840.87;;;1.81;100.00
45872;BME280;32333;55.844;-3.210;2022-12-29T01:36:41;95836.62;;;1.33;100.00
45872;BME280;32333;55.844;-3.210;2022-12-29T01:39:08;95852.05;;;1.60;100.00
45872;BME280;32333;55.844;-3.210;2022-12-29T01:41:36;95855.96;;;1.82;100.00
45872;BME280;32333;55.844;-3.210;2022-12-29T01:44:53;95854.74;;;1.92;100.00
45872;BME280;32333;55.844;-3.210;2022-12-29T01:47:39;95854.36;;;1.61;100.00
45872;BME280;32333;55.844;-3.210;2022-12-29T01:50:10;95869.90;;;1.42;100.00
45872;BME280;32333;55.844;-3.210;2022-12-29T01:52:42;95862.46;;;1.78;100.00
45872;BME280;32333;55.844;-3.210;2022-12-29T01:55:14;95873.48;;;1.48;100.00
45872;BME280;32333;55.844;-3.210;2022-12-29T01:57:45;95866.07;;;1.47;100.00
45872;BME280;32333;55.844;-3.210;2022-12-29T02:00:14;95870.97;;;1.08;100.00
45872;BME280;32333;55.844;-3.210;2022-12-29T02:02:45;95877.13;;;1.70;100.00
45872;BME280;32333;55.844;-3.210;2022-12-29T02:05:21;95851.04;;;1.60;100.00
45872;BME280;32333;55.844;-3.210;2022-12-29T02:07:51;95867.77;;;1.61;100.00
45872;BME280;32333;55.844;-3.210;2022-12-29T02:10:21;95876.09;;;1.59;100.00
45872;BME280;32333;55.844;-3.210;2022-12-29T02:14:34;95891.04;;;1.49;100.00
45872;BME280;32333;55.844;-3.210;2022-12-29T02:17:07;95874.49;;;1.64;100.00
45872;BME280;32333;55.844;-3.210;2022-12-29T02:21:44;95887.51;;;1.81;100.00
45872;BME280;32333;55.844;-3.210;2022-12-29T02:25:55;95898.03;;;2.54;100.00
45872;BME280;32333;55.844;-3.210;2022-12-29T02:28:53;95895.46;;;1.22;100.00
45872;BME280;32333;55.844;-3.210;2022-12-29T02:31:32;95900.31;;;1.47;100.00
45872;BME280;32333;55.844;-3.210;2022-12-29T02:34:07;95909.70;;;1.71;100.00
45872;BME280;32333;55.844;-3.210;2022-12-29T02:36:47;95908.11;;;1.44;100.00
45872;BME280;32333;55.844;-3.210;2022-12-29T02:39:23;95924.27;;;1.34;100.00
45872;BME280;32333;55.844;-3.210;2022-12-29T02:42:00;95930.80;;;1.65;100.00
45872;BME280;32333;55.844;-3.210;2022-12-29T02:44:39;95933.58;;;1.60;100.00
45872;BME280;32333;55.844;-3.210;2022-12-29T02:47:15;95934.17;;;1.35;100.00
45872;BME280;32333;55.844;-3.210;2022-12-29T02:49:52;95931.70;;;1.23;100.00
45872;BME280;32333;55.844;-3.210;2022-12-29T02:52:27;95934.65;;;1.21;100.00
45872;BME280;32333;55.844;-3.210;2022-12-29T02:54:58;95936.35;;;1.59;100.00
45872;BME280;32333;55.844;-3.210;2022-12-29T02:57:31;95932.58;;;1.79;100.00
45872;BME280;32333;55.844;-3.210;2022-12-29T03:00:03;95935.42;;;1.53;100.00
45872;BME280;32333;55.844;-3.210;2022-12-29T03:02:56;95935.39;;;1.41;100.00
45872;BME280;32333;55.844;-3.210;2022-12-29T03:05:51;95939.52;;;1.81;100.00
45872;BME280;32333;55.844;-3.210;2022-12-29T03:08:26;95949.84;;;2.01;100.00
45872;BME280;32333;55.844;-3.210;2022-12-29T03:11:01;95957.70;;;1.58;100.00
45872;BME280;32333;55.844;-3.210;2022-12-29T03:14:43;95966.81;;;1.49;100.00
45872;BME280;32333;55.844;-3.210;2022-12-29T03:17:18;95969.34;;;1.90;100.00
45872;BME280;32333;55.844;-3.210;2022-12-29T03:19:51;95977.40;;;1.50;100.00
45872;BME280;32333;55.844;-3.210;2022-12-29T03:22:25;95985.34;;;1.37;100.00
45872;BME280;32333;55.844;-3.210;2022-12-29T03:24:59;95973.04;;;1.36;100.00
45872;BME280;32333;55.844;-3.210;2022-12-29T03:27:30;95983.89;;;1.32;100.00
45872;BME280;32333;55.844;-3.210;2022-12-29T03:30:01;95989.84;;;1.41;100.00
45872;BME280;32333;55.844;-3.210;2022-12-29T03:32:33;95980.60;;;1.19;100.00
45872;BME280;32333;55.844;-3.210;2022-12-29T03:35:03;95986.19;;;1.28;100.00
45872;BME280;32333;55.844;-3.210;2022-12-29T03:37:36;95979.36;;;1.14;100.00
45872;BME280;32333;55.844;-3.210;2022-12-29T03:40:06;95996.17;;;1.38;100.00
45872;BME280;32333;55.844;-3.210;2022-12-29T03:44:36;96010.08;;;1.68;100.00
45872;BME280;32333;55.844;-3.210;2022-12-29T03:47:06;96008.43;;;1.88;100.00
45872;BME280;32333;55.844;-3.210;2022-12-29T03:49:34;96017.95;;;1.75;100.00
45872;BME280;32333;55.844;-3.210;2022-12-29T03:52:01;96024.64;;;1.59;100.00
45872;BME280;32333;55.844;-3.210;2022-12-29T03:54:29;96024.81;;;1.45;100.00
45872;BME280;32333;55.844;-3.210;2022-12-29T03:56:57;96041.45;;;1.52;100.00
45872;BME280;32333;55.844;-3.210;2022-12-29T03:59:24;96046.85;;;2.08;100.00
45872;BME280;32333;55.844;-3.210;2022-12-29T04:01:51;96048.17;;;2.38;100.00
45872;BME280;32333;55.844;-3.210;2022-12-29T04:04:19;96055.48;;;2.02;100.00
45872;BME280;32333;55.844;-3.210;2022-12-29T04:06:46;96059.85;;;2.04;100.00
45872;BME280;32333;55.844;-3.210;2022-12-29T04:09:13;96066.57;;;1.57;100.00
45872;BME280;32333;55.844;-3.210;2022-12-29T04:11:40;96069.42;;;2.06;100.00
45872;BME280;32333;55.844;-3.210;2022-12-29T04:14:36;96075.40;;;1.94;100.00
45872;BME280;32333;55.844;-3.210;2022-12-29T04:17:03;96076.04;;;1.42;100.00
45872;BME280;32333;55.844;-3.210;2022-12-29T04:19:31;96090.84;;;2.61;100.00
45872;BME280;32333;55.844;-3.210;2022-12-29T04:21:59;96095.62;;;1.77;100.00
45872;BME280;32333;55.844;-3.210;2022-12-29T04:24:27;96097.55;;;1.30;100.00
45872;BME280;32333;55.844;-3.210;2022-12-29T04:26:54;96109.04;;;2.23;100.00
45872;BME280;32333;55.844;-3.210;2022-12-29T04:29:21;96107.97;;;1.74;100.00
45872;BME280;32333;55.844;-3.210;2022-12-29T04:31:49;96117.30;;;2.53;100.00
45872;BME280;32333;55.844;-3.210;2022-12-29T04:34:17;96116.56;;;2.41;100.00
45872;BME280;32333;55.844;-3.210;2022-12-29T04:36:44;96119.98;;;2.35;100.00
45872;BME280;32333;55.844;-3.210;2022-12-29T04:39:13;96115.19;;;1.70;100.00
45872;BME280;32333;55.844;-3.210;2022-12-29T04:41:40;96118.75;;;1.85;100.00
45872;BME280;32333;55.844;-3.210;2022-12-29T04:44:35;96120.59;;;2.23;100.00
45872;BME280;32333;55.844;-3.210;2022-12-29T04:47:03;96127.66;;;2.37;100.00
45872;BME280;32333;55.844;-3.210;2022-12-29T04:49:30;96128.04;;;1.81;100.00
45872;BME280;32333;55.844;-3.210;2022-12-29T04:51:58;96133.48;;;2.22;100.00
45872;BME280;32333;55.844;-3.210;2022-12-29T04:54:26;96137.33;;;2.47;100.00
45872;BME280;32333;55.844;-3.210;2022-12-29T04:56:53;96146.71;;;2.18;100.00
45872;BME280;32333;55.844;-3.210;2022-12-29T04:59:21;96153.30;;;2.56;100.00
45872;BME280;32333;55.844;-3.210;2022-12-29T05:01:48;96155.87;;;2.14;100.00
45872;BME280;32333;55.844;-3.210;2022-12-29T05:04:16;96152.70;;;2.42;100.00
45872;BME280;32333;55.844;-3.210;2022-12-29T05:06:43;96154.11;;;2.31;100.00
45872;BME280;32333;55.844;-3.210;2022-12-29T05:09:12;96165.74;;;2.04;100.00
45872;BME280;32333;55.844;-3.210;2022-12-29T05:11:39;96163.08;;;1.94;100.00
45872;BME280;32333;55.844;-3.210;2022-12-29T05:14:34;96168.84;;;2.03;100.00
45872;BME280;32333;55.844;-3.210;2022-12-29T05:17:01;96168.64;;;2.40;100.00
45872;BME280;32333;55.844;-3.210;2022-12-29T05:19:29;96166.79;;;2.45;100.00
45872;BME280;32333;55.844;-3.210;2022-12-29T05:21:56;96164.69;;;2.07;100.00
45872;BME280;32333;55.844;-3.210;2022-12-29T05:24:23;96172.28;;;1.71;100.00
45872;BME280;32333;55.844;-3.210;2022-12-29T05:26:50;96175.67;;;2.82;100.00
45872;BME280;32333;55.844;-3.210;2022-12-29T05:29:18;96182.96;;;2.20;100.00
45872;BME280;32333;55.844;-3.210;2022-12-29T05:31:45;96178.18;;;2.76;100.00
45872;BME280;32333;55.844;-3.210;2022-12-29T05:34:12;96179.66;;;2.54;100.00
45872;BME280;32333;55.844;-3.210;2022-12-29T05:36:39;96186.58;;;2.55;100.00
45872;BME280;32333;55.844;-3.210;2022-12-29T05:39:06;96193.34;;;2.35;100.00
45872;BME280;32333;55.844;-3.210;2022-12-29T05:41:34;96194.27;;;2.85;100.00
45872;BME280;32333;55.844;-3.210;2022-12-29T05:44:35;96200.49;;;2.14;100.00
45872;BME280;32333;55.844;-3.210;2022-12-29T05:47:02;96199.51;;;2.53;100.00
45872;BME280;32333;55.844;-3.210;2022-12-29T05:49:29;96198.39;;;2.40;100.00
45872;BME280;32333;55.844;-3.210;2022-12-29T05:51:56;96207.94;;;2.64;100.00
45872;BME280;32333;55.844;-3.210;2022-12-29T05:54:24;96203.29;;;1.81;100.00
45872;BME280;32333;55.844;-3.210;2022-12-29T05:56:51;96209.43;;;2.97;100.00
45872;BME280;32333;55.844;-3.210;2022-12-29T05:59:18;96221.31;;;2.31;100.00
45872;BME280;32333;55.844;-3.210;2022-12-29T06:01:45;96223.51;;;2.24;100.00
45872;BME280;32333;55.844;-3.210;2022-12-29T06:04:13;96216.82;;;2.39;100.00
45872;BME280;32333;55.844;-3.210;2022-12-29T06:06:40;96222.15;;;1.72;100.00
45872;BME280;32333;55.844;-3.210;2022-12-29T06:09:09;96226.88;;;2.32;100.00
45872;BME280;32333;55.844;-3.210;2022-12-29T06:11:37;96222.16;;;2.49;100.00
45872;BME280;32333;55.844;-3.210;2022-12-29T06:14:36;96233.43;;;2.59;100.00
45872;BME280;32333;55.844;-3.210;2022-12-29T06:17:03;96238.32;;;2.16;100.00
45872;BME280;32333;55.844;-3.210;2022-12-29T06:19:30;96245.71;;;2.17;100.00
45872;BME280;32333;55.844;-3.210;2022-12-29T06:21:59;96253.75;;;2.75;100.00
45872;BME280;32333;55.844;-3.210;2022-12-29T06:24:26;96251.97;;;3.11;100.00
45872;BME280;32333;55.844;-3.210;2022-12-29T06:26:54;96258.29;;;2.51;100.00
45872;BME280;32333;55.844;-3.210;2022-12-29T06:29:21;96260.99;;;2.50;100.00
45872;BME280;32333;55.844;-3.210;2022-12-29T06:31:49;96266.21;;;3.40;100.00
45872;BME280;32333;55.844;-3.210;2022-12-29T06:34:16;96268.79;;;3.29;100.00
45872;BME280;32333;55.844;-3.210;2022-12-29T06:36:44;96274.80;;;3.13;100.00
45872;BME280;32333;55.844;-3.210;2022-12-29T06:39:12;96280.92;;;2.21;100.00
45872;BME280;32333;55.844;-3.210;2022-12-29T06:41:40;96282.06;;;2.36;100.00
45872;BME280;32333;55.844;-3.210;2022-12-29T06:44:35;96289.50;;;3.01;100.00
45872;BME280;32333;55.844;-3.210;2022-12-29T06:47:03;96294.49;;;3.53;100.00
45872;BME280;32333;55.844;-3.210;2022-12-29T06:49:30;96292.21;;;2.59;100.00
45872;BME280;32333;55.844;-3.210;2022-12-29T06:51:58;96295.18;;;1.94;100.00
45872;BME280;32333;55.844;-3.210;2022-12-29T06:54:26;96289.51;;;2.28;100.00
45872;BME280;32333;55.844;-3.210;2022-12-29T06:56:53;96293.57;;;2.21;100.00
45872;BME280;32333;55.844;-3.210;2022-12-29T06:59:21;96286.99;;;2.38;100.00
45872;BME280;32333;55.844;-3.210;2022-12-29T07:01:49;96295.49;;;2.33;100.00
45872;BME280;32333;55.844;-3.210;2022-12-29T07:04:16;96295.77;;;2.68;100.00
45872;BME280;32333;55.844;-3.210;2022-12-29T07:06:43;96291.28;;;2.38;100.00
45872;BME280;32333;55.844;-3.210;2022-12-29T07:09:12;96296.00;;;2.30;100.00
45872;BME280;32333;55.844;-3.210;2022-12-29T07:11:39;96306.47;;;2.51;100.00
45872;BME280;32333;55.844;-3.210;2022-12-29T07:14:34;96307.33;;;1.98;100.00
45872;BME280;32333;55.844;-3.210;2022-12-29T07:17:02;96309.10;;;1.88;100.00
45872;BME280;32333;55.844;-3.210;2022-12-29T07:19:29;96307.60;;;1.47;100.00
45872;BME280;32333;55.844;-3.210;2022-12-29T07:21:57;96315.52;;;2.36;100.00
45872;BME280;32333;55.844;-3.210;2022-12-29T07:24:24;96324.68;;;1.97;100.00
45872;BME280;32333;55.844;-3.210;2022-12-29T07:26:52;96319.80;;;2.22;100.00
45872;BME280;32333;55.844;-3.210;2022-12-29T07:29:20;96319.75;;;1.87;100.00
45872;BME280;32333;55.844;-3.210;2022-12-29T07:31:47;96323.25;;;1.75;100.00
45872;BME280;32333;55.844;-3.210;2022-12-29T07:34:15;96327.09;;;1.56;100.00
45872;BME280;32333;55.844;-3.210;2022-12-29T07:36:42;96325.78;;;1.28;100.00
45872;BME280;32333;55.844;-3.210;2022-12-29T07:39:10;96320.75;;;1.20;100.00
45872;BME280;32333;55.844;-3.210;2022-12-29T07:41:37;96315.06;;;1.25;100.00
45872;BME280;32333;55.844;-3.210;2022-12-29T07:44:34;96336.89;;;1.79;100.00
45872;BME280;32333;55.844;-3.210;2022-12-29T07:47:01;96334.81;;;1.42;100.00
45872;BME280;32333;55.844;-3.210;2022-12-29T07:49:29;96339.74;;;1.23;100.00
45872;BME280;32333;55.844;-3.210;2022-12-29T07:51:57;96343.30;;;1.73;100.00
45872;BME280;32333;55.844;-3.210;2022-12-29T07:54:24;96351.04;;;1.36;100.00
45872;BME280;32333;55.844;-3.210;2022-12-29T07:56:51;96355.63;;;1.47;100.00
45872;BME280;32333;55.844;-3.210;2022-12-29T07:59:19;96357.73;;;0.91;100.00
45872;BME280;32333;55.844;-3.210;2022-12-29T08:01:47;96361.07;;;1.09;100.00
45872;BME280;32333;55.844;-3.210;2022-12-29T08:04:14;96364.18;;;1.42;100.00
45872;BME280;32333;55.844;-3.210;2022-12-29T08:06:42;96370.67;;;0.78;100.00
45872;BME280;32333;55.844;-3.210;2022-12-29T08:09:09;96379.22;;;1.05;100.00
45872;BME280;32333;55.844;-3.210;2022-12-29T08:11:36;96386.83;;;1.43;100.00
45872;BME280;32333;55.844;-3.210;2022-12-29T08:14:34;96388.38;;;0.87;100.00
45872;BME280;32333;55.844;-3.210;2022-12-29T08:17:01;96384.49;;;0.53;100.00
45872;BME280;32333;55.844;-3.210;2022-12-29T08:19:29;96401.03;;;0.70;100.00
45872;BME280;32333;55.844;-3.210;2022-12-29T08:21:56;96399.29;;;0.69;100.00
45872;BME280;32333;55.844;-3.210;2022-12-29T08:24:24;96402.81;;;0.24;100.00
45872;BME280;32333;55.844;-3.210;2022-12-29T08:26:51;96406.98;;;0.70;100.00
45872;BME280;32333;55.844;-3.210;2022-12-29T08:29:18;96416.54;;;0.78;100.00
45872;BME280;32333;55.844;-3.210;2022-12-29T08:31:45;96415.17;;;1.22;100.00
45872;BME280;32333;55.844;-3.210;2022-12-29T08:34:13;96417.55;;;0.80;100.00
45872;BME280;32333;55.844;-3.210;2022-12-29T08:36:41;96424.27;;;0.88;100.00
45872;BME280;32333;55.844;-3.210;2022-12-29T08:39:08;96433.77;;;0.43;100.00
45872;BME280;32333;55.844;-3.210;2022-12-29T08:41:36;96443.70;;;0.85;100.00
45872;BME280;32333;55.844;-3.210;2022-12-29T08:44:35;96450.83;;;1.37;100.00
45872;BME280;32333;55.844;-3.210;2022-12-29T08:47:02;96460.15;;;0.73;100.00
45872;BME280;32333;55.844;-3.210;2022-12-29T08:49:30;96462.36;;;1.00;100.00
45872;BME280;32333;55.844;-3.210;2022-12-29T08:51:59;96467.98;;;1.60;100.00
45872;BME280;32333;55.844;-3.210;2022-12-29T08:54:26;96472.36;;;1.14;100.00
45872;BME280;32333;55.844;-3.210;2022-12-29T08:56:54;96479.87;;;0.57;100.00
45872;BME280;32333;55.844;-3.210;2022-12-29T08:59:21;96492.51;;;0.79;100.00
45872;BME280;32333;55.844;-3.210;2022-12-29T09:01:49;96492.36;;;1.25;100.00
45872;BME280;32333;55.844;-3.210;2022-12-29T09:04:16;96503.85;;;0.82;100.00
45872;BME280;32333;55.844;-3.210;2022-12-29T09:06:44;96505.50;;;1.30;100.00
45872;BME280;32333;55.844;-3.210;2022-12-29T09:09:13;96516.73;;;1.45;100.00
45872;BME280;32333;55.844;-3.210;2022-12-29T09:11:41;96523.42;;;0.77;100.00
45872;BME280;32333;55.844;-3.210;2022-12-29T09:14:36;96520.36;;;0.34;100.00
45872;BME280;32333;55.844;-3.210;2022-12-29T09:17:03;96499.17;;;0.16;100.00
45872;BME280;32333;55.844;-3.210;2022-12-29T09:19:31;96497.11;;;-0.10;100.00
45872;BME280;32333;55.844;-3.210;2022-12-29T09:21:59;96500.92;;;0.40;100.00
45872;BME280;32333;55.844;-3.210;2022-12-29T09:24:27;96505.41;;;0.92;100.00
45872;BME280;32333;55.844;-3.210;2022-12-29T09:26:54;96503.28;;;0.92;100.00
45872;BME280;32333;55.844;-3.210;2022-12-29T09:29:22;96500.02;;;0.55;100.00
45872;BME280;32333;55.844;-3.210;2022-12-29T09:31:50;96493.44;;;1.37;100.00
45872;BME280;32333;55.844;-3.210;2022-12-29T09:34:18;96499.83;;;1.25;100.00
45872;BME280;32333;55.844;-3.210;2022-12-29T09:36:45;96503.98;;;1.03;100.00
45872;BME280;32333;55.844;-3.210;2022-12-29T09:39:14;96508.28;;;1.71;100.00
45872;BME280;32333;55.844;-3.210;2022-12-29T09:41:45;96518.73;;;2.57;100.00
45872;BME280;32333;55.844;-3.210;2022-12-29T09:44:49;96518.06;;;2.86;100.00
45872;BME280;32333;55.844;-3.210;2022-12-29T09:47:21;96524.84;;;3.05;100.00
45872;BME280;32333;55.844;-3.210;2022-12-29T09:49:52;96536.86;;;2.97;100.00
45872;BME280;32333;55.844;-3.210;2022-12-29T09:52:24;96526.66;;;3.10;100.00
45872;BME280;32333;55.844;-3.210;2022-12-29T09:54:57;96527.28;;;3.32;100.00
45872;BME280;32333;55.844;-3.210;2022-12-29T09:57:28;96536.94;;;3.34;100.00
45872;BME280;32333;55.844;-3.210;2022-12-29T09:59:59;96539.08;;;2.20;100.00
45872;BME280;32333;55.844;-3.210;2022-12-29T10:02:36;96547.94;;;1.96;100.00
45872;BME280;32333;55.844;-3.210;2022-12-29T10:05:13;96546.57;;;1.64;100.00
45872;BME280;32333;55.844;-3.210;2022-12-29T10:07:48;96551.46;;;2.13;100.00
45872;BME280;32333;55.844;-3.210;2022-12-29T10:10:30;96550.34;;;1.59;100.00
45872;BME280;32333;55.844;-3.210;2022-12-29T10:14:47;96566.24;;;1.75;100.00
45872;BME280;32333;55.844;-3.210;2022-12-29T10:17:28;96558.87;;;1.69;100.00
45872;BME280;32333;55.844;-3.210;2022-12-29T10:20:15;96556.93;;;2.22;100.00
45872;BME280;32333;55.844;-3.210;2022-12-29T10:22:57;96565.10;;;1.58;100.00
45872;BME280;32333;55.844;-3.210;2022-12-29T10:25:32;96568.30;;;1.76;100.00
45872;BME280;32333;55.844;-3.210;2022-12-29T10:28:05;96565.83;;;1.76;100.00
45872;BME280;32333;55.844;-3.210;2022-12-29T10:30:34;96566.27;;;1.40;100.00
45872;BME280;32333;55.844;-3.210;2022-12-29T10:33:06;96578.37;;;1.60;100.00
45872;BME280;32333;55.844;-3.210;2022-12-29T10:35:37;96583.35;;;1.16;100.00
45872;BME280;32333;55.844;-3.210;2022-12-29T10:38:15;96587.83;;;1.63;100.00
45872;BME280;32333;55.844;-3.210;2022-12-29T10:40:50;96590.78;;;2.19;100.00
45872;BME280;32333;55.844;-3.210;2022-12-29T10:44:36;96599.04;;;2.06;100.00
45872;BME280;32333;55.844;-3.210;2022-12-29T10:47:06;96588.72;;;1.69;100.00
45872;BME280;32333;55.844;-3.210;2022-12-29T10:49:39;96604.75;;;1.79;100.00
45872;BME280;32333;55.844;-3.210;2022-12-29T10:52:08;96596.96;;;1.37;100.00
45872;BME280;32333;55.844;-3.210;2022-12-29T10:54:42;96609.20;;;1.48;100.00
45872;BME280;32333;55.844;-3.210;2022-12-29T10:57:15;96596.47;;;1.47;100.00
45872;BME280;32333;55.844;-3.210;2022-12-29T10:59:44;96588.18;;;2.22;100.00
45872;BME280;32333;55.844;-3.210;2022-12-29T11:02:23;96586.09;;;1.50;100.00
45872;BME280;32333;55.844;-3.210;2022-12-29T11:04:59;96584.13;;;2.32;100.00
45872;BME280;32333;55.844;-3.210;2022-12-29T11:07:29;96584.94;;;1.68;100.00
45872;BME280;32333;55.844;-3.210;2022-12-29T11:10:16;96578.32;;;1.95;100.00
45872;BME280;32333;55.844;-3.210;2022-12-29T11:14:35;96579.17;;;1.73;100.00
45872;BME280;32333;55.844;-3.210;2022-12-29T11:17:04;96591.45;;;1.60;100.00
45872;BME280;32333;55.844;-3.210;2022-12-29T11:19:33;96586.82;;;2.19;100.00
45872;BME280;32333;55.844;-3.210;2022-12-29T11:22:13;96584.73;;;2.04;100.00
45872;BME280;32333;55.844;-3.210;2022-12-29T11:24:45;96589.51;;;1.92;100.00
45872;BME280;32333;55.844;-3.210;2022-12-29T11:27:18;96582.26;;;2.42;100.00
45872;BME280;32333;55.844;-3.210;2022-12-29T11:29:46;96575.23;;;2.08;100.00
45872;BME280;32333;55.844;-3.210;2022-12-29T11:32:19;96575.03;;;1.82;100.00
45872;BME280;32333;55.844;-3.210;2022-12-29T11:34:47;96574.57;;;2.22;100.00
45872;BME280;32333;55.844;-3.210;2022-12-29T11:37:17;96576.04;;;2.23;100.00
45872;BME280;32333;55.844;-3.210;2022-12-29T11:39:51;96572.17;;;2.88;100.00
45872;BME280;32333;55.844;-3.210;2022-12-29T11:44:41;96565.68;;;2.94;100.00
45872;BME280;32333;55.844;-3.210;2022-12-29T11:47:20;96567.77;;;2.99;100.00
45872;BME280;32333;55.844;-3.210;2022-12-29T11:49:51;96566.58;;;2.63;100.00
45872;BME280;32333;55.844;-3.210;2022-12-29T11:52:22;96565.83;;;3.06;100.00
45872;BME280;32333;55.844;-3.210;2022-12-29T11:54:52;96564.14;;;2.16;100.00
45872;BME280;32333;55.844;-3.210;2022-12-29T11:57:22;96570.92;;;2.63;100.00
45872;BME280;32333;55.844;-3.210;2022-12-29T11:59:53;96568.12;;;2.16;100.00
45872;BME280;32333;55.844;-3.210;2022-12-29T12:02:44;96566.82;;;2.94;100.00
45872;BME280;32333;55.844;-3.210;2022-12-29T12:05:21;96571.79;;;2.15;100.00
45872;BME280;32333;55.844;-3.210;2022-12-29T12:07:54;96566.54;;;2.18;100.00
45872;BME280;32333;55.844;-3.210;2022-12-29T12:10:26;96575.87;;;2.14;100.00
45872;BME280;32333;55.844;-3.210;2022-12-29T12:14:49;96570.85;;;2.23;100.00
45872;BME280;32333;55.844;-3.210;2022-12-29T12:17:23;96572.67;;;2.65;100.00
45872;BME280;32333;55.844;-3.210;2022-12-29T12:19:56;96575.44;;;2.35;100.00
45872;BME280;32333;55.844;-3.210;2022-12-29T12:22:31;96572.20;;;2.57;100.00
45872;BME280;32333;55.844;-3.210;2022-12-29T12:25:03;96570.09;;;2.61;100.00
45872;BME280;32333;55.844;-3.210;2022-12-29T12:27:37;96570.26;;;2.73;100.00
45872;BME280;32333;55.844;-3.210;2022-12-29T12:30:13;96570.49;;;2.52;100.00
45872;BME280;32333;55.844;-3.210;2022-12-29T12:32:46;96567.04;;;2.59;100.00
45872;BME280;32333;55.844;-3.210;2022-12-29T12:35:23;96563.98;;;2.14;100.00
45872;BME280;32333;55.844;-3.210;2022-12-29T12:38:04;96572.88;;;2.49;100.00
45872;BME280;32333;55.844;-3.210;2022-12-29T12:40:45;96567.58;;;3.38;100.00
45872;BME280;32333;55.844;-3.210;2022-12-29T12:44:41;96559.00;;;3.08;100.00
45872;BME280;32333;55.844;-3.210;2022-12-29T12:47:24;96552.44;;;3.18;100.00
45872;BME280;32333;55.844;-3.210;2022-12-29T12:50:25;96548.03;;;3.09;100.00
45872;BME280;32333;55.844;-3.210;2022-12-29T12:53:06;96546.49;;;2.87;100.00
45872;BME280;32333;55.844;-3.210;2022-12-29T12:55:50;96541.40;;;2.97;100.00
45872;BME280;32333;55.844;-3.210;2022-12-29T12:58:27;96546.74;;;2.72;100.00
45872;BME280;32333;55.844;-3.210;2022-12-29T13:01:06;96546.99;;;2.29;100.00
45872;BME280;32333;55.844;-3.210;2022-12-29T13:03:46;96549.47;;;2.40;100.00
45872;BME280;32333;55.844;-3.210;2022-12-29T13:06:24;96534.17;;;2.46;100.00
45872;BME280;32333;55.844;-3.210;2022-12-29T13:09:05;96544.15;;;2.32;100.00
45872;BME280;32333;55.844;-3.210;2022-12-29T13:11:46;96542.04;;;2.44;100.00
45872;BME280;32333;55.844;-3.210;2022-12-29T13:14:46;96538.63;;;2.91;100.00
45872;BME280;32333;55.844;-3.210;2022-12-29T13:17:24;96540.54;;;1.92;100.00
45872;BME280;32333;55.844;-3.210;2022-12-29T13:20:05;96546.09;;;2.54;100.00
45872;BME280;32333;55.844;-3.210;2022-12-29T13:22:42;96542.74;;;2.06;100.00
45872;BME280;32333;55.844;-3.210;2022-12-29T13:25:22;96544.72;;;3.10;100.00
45872;BME280;32333;55.844;-3.210;2022-12-29T13:27:59;96547.44;;;2.28;100.00
45872;BME280;32333;55.844;-3.210;2022-12-29T13:30:32;96546.37;;;2.16;100.00
45872;BME280;32333;55.844;-3.210;2022-12-29T13:33:13;96552.51;;;1.88;100.00
45872;BME280;32333;55.844;-3.210;2022-12-29T13:35:54;96561.75;;;2.30;100.00